sensor_id;sensor_type;location;lat;lon;timestamp;pressure;altitude;pressure_sealevel;temperature;humidity
71964;BME280;59834;52.124;5.422;2023-05-24T00:01:03;102550.28;;;7.78;85.83
71964;BME280;59834;52.124;5.422;2023-05-24T00:03:30;102546.00;;;7.76;85.33
71964;BME280;59834;52.124;5.422;2023-05-24T00:06:00;102552.25;;;7.69;86.16
71964;BME280;59834;52.124;5.422;2023-05-24T00:08:27;102551.47;;;7.65;86.17
71964;BME280;59834;52.124;5.422;2023-05-24T00:10:54;102550.72;;;7.60;86.11
71964;BME280;59834;52.124;5.422;2023-05-24T00:13:22;102549.78;;;7.63;86.15
71964;BME280;59834;52.124;5.422;2023-05-24T00:15:50;102541.91;;;7.66;86.49
71964;BME280;59834;52.124;5.422;2023-05-24T00:18:19;102539.44;;;7.60;86.67
71964;BME280;59834;52.124;5.422;2023-05-24T00:20:46;102541.31;;;7.54;86.76
71964;BME280;59834;52.124;5.422;2023-05-24T00:23:16;102544.13;;;7.45;87.22
71964;BME280;59834;52.124;5.422;2023-05-24T00:25:44;102553.78;;;7.40;87.15
71964;BME280;59834;52.124;5.422;2023-05-24T00:28:12;102543.47;;;7.34;87.67
71964;BME280;59834;52.124;5.422;2023-05-24T00:30:42;102546.25;;;7.28;87.62
71964;BME280;59834;52.124;5.422;2023-05-24T00:33:09;102543.72;;;7.23;88.03
71964;BME280;59834;52.124;5.422;2023-05-24T00:35:36;102536.75;;;7.25;88.15
71964;BME280;59834;52.124;5.422;2023-05-24T00:38:04;102532.41;;;7.26;87.78
71964;BME280;59834;52.124;5.422;2023-05-24T00:40:31;102526.28;;;7.27;88.00
71964;BME280;59834;52.124;5.422;2023-05-24T00:42:58;102526.28;;;7.28;88.24
71964;BME280;59834;52.124;5.422;2023-05-24T00:45:32;102531.47;;;7.28;87.46
71964;BME280;59834;52.124;5.422;2023-05-24T00:47:59;102522.75;;;7.31;88.10
71964;BME280;59834;52.124;5.422;2023-05-24T00:50:26;102524.59;;;7.26;87.93
71964;BME280;59834;52.124;5.422;2023-05-24T00:52:54;102526.41;;;7.21;88.28
71964;BME280;59834;52.124;5.422;2023-05-24T00:55:22;102519.44;;;7.23;89.05
71964;BME280;59834;52.124;5.422;2023-05-24T00:57:58;102517.66;;;7.25;88.50
71964;BME280;59834;52.124;5.422;2023-05-24T01:00:28;102519.44;;;7.24;88.19
71964;BME280;59834;52.124;5.422;2023-05-24T01:02:55;102514.22;;;7.23;87.92
71964;BME280;59834;52.124;5.422;2023-05-24T01:05:23;102516.00;;;7.21;88.31
71964;BME280;59834;52.124;5.422;2023-05-24T01:08:12;102522.09;;;7.21;87.81
71964;BME280;59834;52.124;5.422;2023-05-24T01:10:55;102525.63;;;7.17;87.71
71964;BME280;59834;52.124;5.422;2023-05-24T01:13:39;102518.78;;;7.13;88.12
71964;BME280;59834;52.124;5.422;2023-05-24T01:16:21;102523.19;;;7.11;88.58
71964;BME280;59834;52.124;5.422;2023-05-24T01:18:54;102520.59;;;7.09;88.09
71964;BME280;59834;52.124;5.422;2023-05-24T01:35:24;102516.56;;;6.96;90.52
71964;BME280;59834;52.124;5.422;2023-05-24T01:37:51;102519.94;;;7.01;90.83
71964;BME280;59834;52.124;5.422;2023-05-24T01:40:17;102526.00;;;7.02;90.37
71964;BME280;59834;52.124;5.422;2023-05-24T01:42:56;102526.78;;;7.05;90.94
71964;BME280;59834;52.124;5.422;2023-05-24T01:45:34;102521.50;;;7.08;90.44
71964;BME280;59834;52.124;5.422;2023-05-24T01:50:57;102520.59;;;7.11;91.04
71964;BME280;59834;52.124;5.422;2023-05-24T01:53:31;102514.44;;;7.14;91.06
71964;BME280;59834;52.124;5.422;2023-05-24T01:56:04;102515.34;;;7.13;90.98
71964;BME280;59834;52.124;5.422;2023-05-24T01:58:35;102517.09;;;7.11;92.03
71964;BME280;59834;52.124;5.422;2023-05-24T02:01:15;102520.59;;;7.09;91.81
71964;BME280;59834;52.124;5.422;2023-05-24T02:03:45;102513.69;;;7.08;92.11
71964;BME280;59834;52.124;5.422;2023-05-24T02:06:14;102515.34;;;7.13;91.79
71964;BME280;59834;52.124;5.422;2023-05-24T02:08:40;102522.22;;;7.15;91.88
71964;BME280;59834;52.124;5.422;2023-05-24T02:11:07;102521.31;;;7.18;91.28
71964;BME280;59834;52.124;5.422;2023-05-24T02:13:34;102513.50;;;7.18;91.26
71964;BME280;59834;52.124;5.422;2023-05-24T02:16:02;102514.38;;;7.17;91.92
71964;BME280;59834;52.124;5.422;2023-05-24T02:18:33;102513.50;;;7.16;91.50
71964;BME280;59834;52.124;5.422;2023-05-24T02:21:01;102509.22;;;7.14;91.45
71964;BME280;59834;52.124;5.422;2023-05-24T02:23:28;102506.66;;;7.12;91.74
71964;BME280;59834;52.124;5.422;2023-05-24T02:25:55;102510.19;;;7.09;91.47
71964;BME280;59834;52.124;5.422;2023-05-24T02:28:21;102505.88;;;7.08;92.30
71964;BME280;59834;52.124;5.422;2023-05-24T02:30:48;102503.28;;;7.07;92.33
71964;BME280;59834;52.124;5.422;2023-05-24T02:33:15;102506.84;;;7.04;92.60
71964;BME280;59834;52.124;5.422;2023-05-24T02:35:45;102510.31;;;7.03;92.35
71964;BME280;59834;52.124;5.422;2023-05-24T02:38:12;102512.13;;;7.01;93.03
71964;BME280;59834;52.124;5.422;2023-05-24T02:40:39;102508.69;;;6.99;92.83
71964;BME280;59834;52.124;5.422;2023-05-24T02:43:06;102506.06;;;6.99;93.89
71964;BME280;59834;52.124;5.422;2023-05-24T02:45:35;102509.53;;;7.00;93.60
71964;BME280;59834;52.124;5.422;2023-05-24T02:48:03;102517.34;;;7.00;93.14
71964;BME280;59834;52.124;5.422;2023-05-24T02:50:30;102508.72;;;6.98;93.57
71964;BME280;59834;52.124;5.422;2023-05-24T02:52:56;102516.59;;;6.95;94.00
71964;BME280;59834;52.124;5.422;2023-05-24T02:55:23;102514.06;;;6.92;93.99
71964;BME280;59834;52.124;5.422;2023-05-24T02:57:50;102515.81;;;6.90;93.76
71964;BME280;59834;52.124;5.422;2023-05-24T03:00:18;102518.50;;;6.87;94.48
71964;BME280;59834;52.124;5.422;2023-05-24T03:02:47;102517.66;;;6.86;94.71
71964;BME280;59834;52.124;5.422;2023-05-24T03:05:16;102526.34;;;6.85;94.65
71964;BME280;59834;52.124;5.422;2023-05-24T03:07:54;102523.81;;;6.82;94.96
71964;BME280;59834;52.124;5.422;2023-05-24T03:10:22;102522.97;;;6.81;95.03
71964;BME280;59834;52.124;5.422;2023-05-24T03:12:49;102517.75;;;6.80;95.46
71964;BME280;59834;52.124;5.422;2023-05-24T03:15:16;102516.91;;;6.79;95.37
71964;BME280;59834;52.124;5.422;2023-05-24T03:17:43;102522.09;;;6.81;95.19
71964;BME280;59834;52.124;5.422;2023-05-24T03:20:10;102521.22;;;6.82;95.56
71964;BME280;59834;52.124;5.422;2023-05-24T03:22:37;102513.41;;;6.80;95.78
71964;BME280;59834;52.124;5.422;2023-05-24T03:25:05;102500.44;;;6.79;95.76
71964;BME280;59834;52.124;5.422;2023-05-24T03:27:34;102507.41;;;6.78;95.69
71964;BME280;59834;52.124;5.422;2023-05-24T03:30:03;102498.75;;;6.78;95.85
71964;BME280;59834;52.124;5.422;2023-05-24T03:32:32;102497.84;;;6.79;96.27
71964;BME280;59834;52.124;5.422;2023-05-24T03:34:59;102492.59;;;6.80;95.60
71964;BME280;59834;52.124;5.422;2023-05-24T03:37:28;102496.06;;;6.81;96.04
71964;BME280;59834;52.124;5.422;2023-05-24T03:39:56;102495.19;;;6.80;95.53
71964;BME280;59834;52.124;5.422;2023-05-24T03:42:23;102496.94;;;6.80;95.87
71964;BME280;59834;52.124;5.422;2023-05-24T03:44:50;102498.69;;;6.79;95.96
71964;BME280;59834;52.124;5.422;2023-05-24T03:47:17;102498.69;;;6.81;95.34
71964;BME280;59834;52.124;5.422;2023-05-24T03:49:46;102498.63;;;6.82;95.45
71964;BME280;59834;52.124;5.422;2023-05-24T03:52:18;102498.53;;;6.87;95.60
71964;BME280;59834;52.124;5.422;2023-05-24T03:54:49;102500.19;;;6.91;95.28
71964;BME280;59834;52.124;5.422;2023-05-24T03:57:17;102498.41;;;6.93;95.37
71964;BME280;59834;52.124;5.422;2023-05-24T03:59:49;102499.25;;;6.94;95.27
71964;BME280;59834;52.124;5.422;2023-05-24T04:02:21;102503.53;;;6.96;95.07
71964;BME280;59834;52.124;5.422;2023-05-24T04:04:48;102499.06;;;7.03;95.25
71964;BME280;59834;52.124;5.422;2023-05-24T04:07:16;102497.22;;;7.08;95.48
71964;BME280;59834;52.124;5.422;2023-05-24T04:09:43;102502.25;;;7.16;94.79
71964;BME280;59834;52.124;5.422;2023-05-24T04:12:10;102501.22;;;7.23;94.98
71964;BME280;59834;52.124;5.422;2023-05-24T04:14:39;102499.31;;;7.31;94.38
71964;BME280;59834;52.124;5.422;2023-05-24T04:17:07;102493.78;;;7.43;94.37
71964;BME280;59834;52.124;5.422;2023-05-24T04:19:35;102498.72;;;7.55;93.70
71964;BME280;59834;52.124;5.422;2023-05-24T04:22:03;102497.59;;;7.64;93.86
71964;BME280;59834;52.124;5.422;2023-05-24T04:24:32;102500.50;;;8.20;92.97
71964;BME280;59834;52.124;5.422;2023-05-24T04:27:02;102500.09;;;9.53;89.25
71964;BME280;59834;52.124;5.422;2023-05-24T04:29:32;102492.25;;;10.54;84.45
71964;BME280;59834;52.124;5.422;2023-05-24T04:32:03;102489.25;;;11.53;79.98
71964;BME280;59834;52.124;5.422;2023-05-24T04:34:38;102487.38;;;12.38;76.08
71964;BME280;59834;52.124;5.422;2023-05-24T04:37:14;102494.06;;;12.83;72.15
71964;BME280;59834;52.124;5.422;2023-05-24T04:39:46;102485.69;;;12.94;71.46
71964;BME280;59834;52.124;5.422;2023-05-24T04:42:20;102488.31;;;13.49;69.76
71964;BME280;59834;52.124;5.422;2023-05-24T04:44:47;102485.97;;;14.12;67.27
71964;BME280;59834;52.124;5.422;2023-05-24T04:47:17;102481.94;;;14.88;64.04
71964;BME280;59834;52.124;5.422;2023-05-24T04:49:46;102489.81;;;15.35;62.24
71964;BME280;59834;52.124;5.422;2023-05-24T04:52:14;102487.75;;;15.56;61.41
71964;BME280;59834;52.124;5.422;2023-05-24T04:54:43;102482.84;;;15.80;59.90
71964;BME280;59834;52.124;5.422;2023-05-24T04:57:10;102481.66;;;16.00;60.07
71964;BME280;59834;52.124;5.422;2023-05-24T04:59:40;102486.72;;;16.46;58.68
71964;BME280;59834;52.124;5.422;2023-05-24T05:02:07;102483.41;;;16.85;57.31
71964;BME280;59834;52.124;5.422;2023-05-24T05:04:34;102487.47;;;16.91;57.20
71964;BME280;59834;52.124;5.422;2023-05-24T05:07:15;102486.47;;;17.06;57.36
71964;BME280;59834;52.124;5.422;2023-05-24T05:09:49;102480.34;;;17.46;55.55
71964;BME280;59834;52.124;5.422;2023-05-24T05:12:17;102482.69;;;17.77;54.70
71964;BME280;59834;52.124;5.422;2023-05-24T05:14:46;102484.56;;;17.75;54.33
71964;BME280;59834;52.124;5.422;2023-05-24T05:17:16;102482.09;;;17.72;54.46
71964;BME280;59834;52.124;5.422;2023-05-24T05:19:43;102486.59;;;17.97;53.67
71964;BME280;59834;52.124;5.422;2023-05-24T05:22:09;102480.34;;;18.24;52.44
71964;BME280;59834;52.124;5.422;2023-05-24T05:24:38;102485.00;;;18.20;53.02
71964;BME280;59834;52.124;5.422;2023-05-24T05:27:05;102482.91;;;18.00;53.91
71964;BME280;59834;52.124;5.422;2023-05-24T05:29:32;102481.91;;;18.52;52.30
71964;BME280;59834;52.124;5.422;2023-05-24T05:32:02;102487.31;;;18.37;52.29
71964;BME280;59834;52.124;5.422;2023-05-24T05:34:33;102489.19;;;18.61;52.01
71964;BME280;59834;52.124;5.422;2023-05-24T05:36:59;102481.63;;;18.68;51.90
71964;BME280;59834;52.124;5.422;2023-05-24T05:39:26;102493.56;;;18.49;52.04
71964;BME280;59834;52.124;5.422;2023-05-24T05:41:53;102495.03;;;18.66;51.69
71964;BME280;59834;52.124;5.422;2023-05-24T05:44:20;102497.56;;;18.68;51.07
71964;BME280;59834;52.124;5.422;2023-05-24T05:46:47;102497.00;;;18.38;51.69
71964;BME280;59834;52.124;5.422;2023-05-24T05:49:15;102490.00;;;18.25;51.70
71964;BME280;59834;52.124;5.422;2023-05-24T05:51:45;102495.25;;;18.63;51.48
71964;BME280;59834;52.124;5.422;2023-05-24T05:54:14;102493.56;;;18.62;51.38
71964;BME280;59834;52.124;5.422;2023-05-24T05:56:44;102493.03;;;18.57;50.43
71964;BME280;59834;52.124;5.422;2023-05-24T05:59:14;102494.78;;;18.20;52.10
71964;BME280;59834;52.124;5.422;2023-05-24T06:01:44;102502.72;;;17.94;52.55
71964;BME280;59834;52.124;5.422;2023-05-24T06:04:15;102500.69;;;18.10;52.54
71964;BME280;59834;52.124;5.422;2023-05-24T06:06:43;102487.34;;;18.12;52.29
71964;BME280;59834;52.124;5.422;2023-05-24T06:09:10;102480.09;;;18.65;52.15
71964;BME280;59834;52.124;5.422;2023-05-24T06:11:37;102491.63;;;18.77;50.84
71964;BME280;59834;52.124;5.422;2023-05-24T06:14:05;102491.84;;;18.61;51.48
71964;BME280;59834;52.124;5.422;2023-05-24T06:16:33;102487.84;;;18.43;52.06
71964;BME280;59834;52.124;5.422;2023-05-24T06:19:02;102489.03;;;18.38;52.10
71964;BME280;59834;52.124;5.422;2023-05-24T06:21:33;102492.19;;;18.44;50.95
71964;BME280;59834;52.124;5.422;2023-05-24T06:24:02;102489.25;;;18.35;52.00
71964;BME280;59834;52.124;5.422;2023-05-24T06:26:32;102494.44;;;18.37;51.37
71964;BME280;59834;52.124;5.422;2023-05-24T06:28:59;102497.94;;;17.86;52.05
71964;BME280;59834;52.124;5.422;2023-05-24T06:31:26;102499.69;;;17.33;53.68
71964;BME280;59834;52.124;5.422;2023-05-24T06:33:53;102502.50;;;17.84;53.28
71964;BME280;59834;52.124;5.422;2023-05-24T06:36:29;102508.22;;;18.04;52.16
71964;BME280;59834;52.124;5.422;2023-05-24T06:38:59;102515.97;;;17.94;52.95
71964;BME280;59834;52.124;5.422;2023-05-24T06:41:26;102496.91;;;18.14;52.24
71964;BME280;59834;52.124;5.422;2023-05-24T06:43:54;102506.59;;;17.76;52.49
71964;BME280;59834;52.124;5.422;2023-05-24T06:46:22;102513.13;;;17.57;52.66
71964;BME280;59834;52.124;5.422;2023-05-24T06:48:52;102512.94;;;17.73;52.79
71964;BME280;59834;52.124;5.422;2023-05-24T06:51:21;102514.06;;;17.56;52.26
71964;BME280;59834;52.124;5.422;2023-05-24T06:53:47;102504.19;;;17.46;52.57
71964;BME280;59834;52.124;5.422;2023-05-24T06:56:16;102511.06;;;17.48;53.77
71964;BME280;59834;52.124;5.422;2023-05-24T06:58:46;102519.63;;;17.12;54.11
71964;BME280;59834;52.124;5.422;2023-05-24T07:01:16;102523.53;;;16.92;54.21
71964;BME280;59834;52.124;5.422;2023-05-24T07:03:44;102515.69;;;15.90;57.82
71964;BME280;59834;52.124;5.422;2023-05-24T07:06:14;102527.19;;;15.27;59.42
71964;BME280;59834;52.124;5.422;2023-05-24T07:08:46;102520.56;;;15.36;58.32
71964;BME280;59834;52.124;5.422;2023-05-24T07:11:13;102526.94;;;15.00;59.42
71964;BME280;59834;52.124;5.422;2023-05-24T07:13:41;102523.56;;;14.82;61.02
71964;BME280;59834;52.124;5.422;2023-05-24T07:16:09;102529.38;;;14.72;60.87
71964;BME280;59834;52.124;5.422;2023-05-24T07:18:41;102528.56;;;14.87;60.24
71964;BME280;59834;52.124;5.422;2023-05-24T07:21:10;102529.72;;;15.29;59.92
71964;BME280;59834;52.124;5.422;2023-05-24T07:23:37;102525.50;;;15.11;59.95
71964;BME280;59834;52.124;5.422;2023-05-24T07:26:04;102530.44;;;15.17;61.17
71964;BME280;59834;52.124;5.422;2023-05-24T07:28:31;102526.25;;;15.28;59.08
71964;BME280;59834;52.124;5.422;2023-05-24T07:30:58;102527.00;;;14.99;60.35
71964;BME280;59834;52.124;5.422;2023-05-24T07:33:24;102527.94;;;14.66;60.43
71964;BME280;59834;52.124;5.422;2023-05-24T07:35:51;102538.13;;;14.39;62.15
71964;BME280;59834;52.124;5.422;2023-05-24T07:38:19;102534.47;;;14.42;63.17
71964;BME280;59834;52.124;5.422;2023-05-24T07:40:47;102538.88;;;14.41;62.38
71964;BME280;59834;52.124;5.422;2023-05-24T07:43:14;102529.38;;;14.56;62.60
71964;BME280;59834;52.124;5.422;2023-05-24T07:45:42;102537.91;;;14.77;62.25
71964;BME280;59834;52.124;5.422;2023-05-24T07:48:09;102535.03;;;15.13;60.77
71964;BME280;59834;52.124;5.422;2023-05-24T07:50:35;102526.63;;;15.06;59.80
71964;BME280;59834;52.124;5.422;2023-05-24T07:53:05;102530.94;;;15.07;60.05
71964;BME280;59834;52.124;5.422;2023-05-24T07:55:32;102527.81;;;15.17;59.66
71964;BME280;59834;52.124;5.422;2023-05-24T07:58:00;102533.31;;;15.28;60.23
71964;BME280;59834;52.124;5.422;2023-05-24T08:00:26;102530.19;;;15.83;58.76
71964;BME280;59834;52.124;5.422;2023-05-24T08:02:53;102525.41;;;16.18;56.64
71964;BME280;59834;52.124;5.422;2023-05-24T08:05:19;102525.66;;;15.99;57.67
71964;BME280;59834;52.124;5.422;2023-05-24T08:07:46;102523.06;;;15.69;57.66
71964;BME280;59834;52.124;5.422;2023-05-24T08:10:15;102523.13;;;15.06;57.99
71964;BME280;59834;52.124;5.422;2023-05-24T08:12:45;102532.63;;;14.77;60.63
71964;BME280;59834;52.124;5.422;2023-05-24T08:15:13;102526.03;;;14.85;60.80
71964;BME280;59834;52.124;5.422;2023-05-24T08:17:41;102528.75;;;15.16;59.26
71964;BME280;59834;52.124;5.422;2023-05-24T08:20:11;102532.22;;;15.00;60.27
71964;BME280;59834;52.124;5.422;2023-05-24T08:22:48;102527.03;;;15.30;59.65
71964;BME280;59834;52.124;5.422;2023-05-24T08:25:16;102534.19;;;15.59;58.86
71964;BME280;59834;52.124;5.422;2023-05-24T08:27:43;102522.34;;;15.66;57.66
71964;BME280;59834;52.124;5.422;2023-05-24T08:30:13;102520.78;;;15.93;57.54
71964;BME280;59834;52.124;5.422;2023-05-24T08:32:42;102523.44;;;16.22;55.16
71964;BME280;59834;52.124;5.422;2023-05-24T08:35:10;102521.56;;;16.10;55.97
71964;BME280;59834;52.124;5.422;2023-05-24T08:37:47;102522.34;;;15.82;56.67
71964;BME280;59834;52.124;5.422;2023-05-24T08:40:21;102515.25;;;15.82;57.66
71964;BME280;59834;52.124;5.422;2023-05-24T08:42:51;102518.66;;;15.70;56.04
71964;BME280;59834;52.124;5.422;2023-05-24T08:45:21;102523.38;;;15.33;58.21
71964;BME280;59834;52.124;5.422;2023-05-24T08:47:49;102517.44;;;15.60;55.81
71964;BME280;59834;52.124;5.422;2023-05-24T08:50:18;102515.50;;;15.93;56.67
71964;BME280;59834;52.124;5.422;2023-05-24T08:52:44;102518.56;;;16.30;54.15
71964;BME280;59834;52.124;5.422;2023-05-24T08:55:18;102521.56;;;16.67;53.55
71964;BME280;59834;52.124;5.422;2023-05-24T08:57:47;102514.28;;;16.56;53.67
71964;BME280;59834;52.124;5.422;2023-05-24T09:00:18;102511.38;;;16.32;55.04
71964;BME280;59834;52.124;5.422;2023-05-24T09:02:48;102513.16;;;16.32;55.07
71964;BME280;59834;52.124;5.422;2023-05-24T09:05:17;102515.06;;;16.44;53.72
71964;BME280;59834;52.124;5.422;2023-05-24T09:07:48;102518.81;;;16.25;55.11
71964;BME280;59834;52.124;5.422;2023-05-24T09:10:19;102518.16;;;16.08;54.71
71964;BME280;59834;52.124;5.422;2023-05-24T09:12:51;102515.22;;;15.52;54.51
71964;BME280;59834;52.124;5.422;2023-05-24T09:15:20;102516.28;;;15.49;53.68
71964;BME280;59834;52.124;5.422;2023-05-24T09:17:50;102513.94;;;15.75;54.29
71964;BME280;59834;52.124;5.422;2023-05-24T09:20:20;102517.78;;;16.42;52.17
71964;BME280;59834;52.124;5.422;2023-05-24T09:22:51;102518.53;;;16.73;52.24
71964;BME280;59834;52.124;5.422;2023-05-24T09:25:20;102520.69;;;16.95;52.54
71964;BME280;59834;52.124;5.422;2023-05-24T09:27:52;102525.81;;;16.41;53.82
71964;BME280;59834;52.124;5.422;2023-05-24T09:30:19;102526.91;;;16.08;53.93
71964;BME280;59834;52.124;5.422;2023-05-24T09:32:55;102518.63;;;16.00;53.36
71964;BME280;59834;52.124;5.422;2023-05-24T09:35:24;102512.22;;;16.61;50.20
71964;BME280;59834;52.124;5.422;2023-05-24T09:37:53;102520.06;;;16.34;50.99
71964;BME280;59834;52.124;5.422;2023-05-24T09:40:23;102516.16;;;15.97;52.19
71964;BME280;59834;52.124;5.422;2023-05-24T09:43:05;102515.50;;;15.93;54.06
71964;BME280;59834;52.124;5.422;2023-05-24T09:45:46;102517.19;;;15.94;54.92
71964;BME280;59834;52.124;5.422;2023-05-24T09:48:15;102526.06;;;15.93;55.03
71964;BME280;59834;52.124;5.422;2023-05-24T09:51:05;102517.84;;;15.98;55.51
71964;BME280;59834;52.124;5.422;2023-05-24T09:53:36;102521.69;;;15.92;54.56
71964;BME280;59834;52.124;5.422;2023-05-24T09:56:06;102527.94;;;15.91;54.42
71964;BME280;59834;52.124;5.422;2023-05-24T09:58:35;102523.34;;;15.79;54.54
71964;BME280;59834;52.124;5.422;2023-05-24T10:01:07;102533.28;;;15.60;55.58
71964;BME280;59834;52.124;5.422;2023-05-24T10:03:38;102520.66;;;15.81;55.72
71964;BME280;59834;52.124;5.422;2023-05-24T10:06:05;102524.31;;;16.37;54.27
71964;BME280;59834;52.124;5.422;2023-05-24T10:08:37;102528.38;;;16.57;53.95
71964;BME280;59834;52.124;5.422;2023-05-24T10:11:04;102522.28;;;15.97;52.39
71964;BME280;59834;52.124;5.422;2023-05-24T10:13:32;102519.38;;;15.72;53.90
71964;BME280;59834;52.124;5.422;2023-05-24T10:16:02;102533.44;;;15.56;55.45
71964;BME280;59834;52.124;5.422;2023-05-24T10:18:32;102524.25;;;15.64;55.90
71964;BME280;59834;52.124;5.422;2023-05-24T10:21:05;102528.47;;;15.82;55.64
71964;BME280;59834;52.124;5.422;2023-05-24T10:23:37;102528.53;;;16.11;54.15
71964;BME280;59834;52.124;5.422;2023-05-24T10:26:06;102524.28;;;16.08;53.11
71964;BME280;59834;52.124;5.422;2023-05-24T10:28:45;102525.31;;;16.06;52.75
71964;BME280;59834;52.124;5.422;2023-05-24T10:31:35;102524.75;;;16.15;52.42
71964;BME280;59834;52.124;5.422;2023-05-24T10:34:04;102536.44;;;15.96;52.09
71964;BME280;59834;52.124;5.422;2023-05-24T10:36:34;102516.53;;;15.91;52.94
71964;BME280;59834;52.124;5.422;2023-05-24T10:39:02;102522.84;;;16.02;52.83
71964;BME280;59834;52.124;5.422;2023-05-24T10:41:38;102529.50;;;16.24;51.81
71964;BME280;59834;52.124;5.422;2023-05-24T10:44:09;102523.63;;;16.05;51.39
71964;BME280;59834;52.124;5.422;2023-05-24T10:49:30;102522.94;;;16.01;52.09
71964;BME280;59834;52.124;5.422;2023-05-24T10:52:07;102519.84;;;16.09;53.54
71964;BME280;59834;52.124;5.422;2023-05-24T10:54:34;102518.75;;;16.27;52.50
71964;BME280;59834;52.124;5.422;2023-05-24T10:57:03;102520.72;;;16.38;51.44
71964;BME280;59834;52.124;5.422;2023-05-24T10:59:36;102522.69;;;16.48;50.88
71964;BME280;59834;52.124;5.422;2023-05-24T11:02:07;102522.53;;;16.37;52.96
71964;BME280;59834;52.124;5.422;2023-05-24T11:04:45;102521.56;;;16.24;51.51
71964;BME280;59834;52.124;5.422;2023-05-24T11:07:13;102524.50;;;16.34;51.04
71964;BME280;59834;52.124;5.422;2023-05-24T11:09:41;102518.00;;;16.54;50.18
71964;BME280;59834;52.124;5.422;2023-05-24T11:12:21;102513.63;;;16.53;49.79
71964;BME280;59834;52.124;5.422;2023-05-24T11:14:51;102522.50;;;16.23;50.72
71964;BME280;59834;52.124;5.422;2023-05-24T11:17:23;102511.94;;;16.37;50.10
71964;BME280;59834;52.124;5.422;2023-05-24T11:19:52;102508.94;;;16.43;50.40
71964;BME280;59834;52.124;5.422;2023-05-24T11:22:22;102508.53;;;16.49;50.00
71964;BME280;59834;52.124;5.422;2023-05-24T11:24:51;102513.81;;;16.49;51.04
71964;BME280;59834;52.124;5.422;2023-05-24T11:27:18;102504.69;;;16.41;50.79
71964;BME280;59834;52.124;5.422;2023-05-24T11:29:52;102515.53;;;16.22;51.28
71964;BME280;59834;52.124;5.422;2023-05-24T11:32:20;102515.72;;;16.33;50.68
71964;BME280;59834;52.124;5.422;2023-05-24T11:34:49;102511.56;;;16.29;51.00
71964;BME280;59834;52.124;5.422;2023-05-24T11:37:17;102515.16;;;16.57;51.02
71964;BME280;59834;52.124;5.422;2023-05-24T11:39:54;102514.94;;;16.88;49.90
71964;BME280;59834;52.124;5.422;2023-05-24T11:42:21;102511.50;;;17.15;49.85
71964;BME280;59834;52.124;5.422;2023-05-24T11:44:54;102510.13;;;16.95;49.88
71964;BME280;59834;52.124;5.422;2023-05-24T11:47:22;102520.31;;;16.72;50.76
71964;BME280;59834;52.124;5.422;2023-05-24T11:49:50;102516.75;;;16.73;51.34
71964;BME280;59834;52.124;5.422;2023-05-24T11:52:17;102515.53;;;16.93;50.69
71964;BME280;59834;52.124;5.422;2023-05-24T11:54:45;102507.59;;;16.93;50.61
71964;BME280;59834;52.124;5.422;2023-05-24T11:57:11;102507.41;;;16.82;50.57
71964;BME280;59834;52.124;5.422;2023-05-24T11:59:40;102516.78;;;17.15;51.08
71964;BME280;59834;52.124;5.422;2023-05-24T12:02:10;102510.28;;;17.33;50.21
71964;BME280;59834;52.124;5.422;2023-05-24T12:04:37;102511.63;;;17.26;50.47
71964;BME280;59834;52.124;5.422;2023-05-24T12:07:09;102508.91;;;17.13;51.24
71964;BME280;59834;52.124;5.422;2023-05-24T12:09:48;102509.44;;;17.06;50.79
71964;BME280;59834;52.124;5.422;2023-05-24T12:12:16;102506.97;;;17.03;50.76
71964;BME280;59834;52.124;5.422;2023-05-24T12:14:54;102511.16;;;16.92;51.03
71964;BME280;59834;52.124;5.422;2023-05-24T12:17:21;102496.94;;;16.81;51.02
71964;BME280;59834;52.124;5.422;2023-05-24T12:19:49;102493.16;;;16.85;51.00
71964;BME280;59834;52.124;5.422;2023-05-24T12:22:17;102500.91;;;17.15;51.36
71964;BME280;59834;52.124;5.422;2023-05-24T12:24:49;102502.00;;;17.25;50.54
71964;BME280;59834;52.124;5.422;2023-05-24T12:27:17;102500.91;;;17.15;51.09
71964;BME280;59834;52.124;5.422;2023-05-24T12:29:44;102490.19;;;16.89;51.37
71964;BME280;59834;52.124;5.422;2023-05-24T12:32:11;102509.66;;;16.88;51.78
71964;BME280;59834;52.124;5.422;2023-05-24T12:34:44;102500.00;;;16.73;52.08
71964;BME280;59834;52.124;5.422;2023-05-24T12:37:11;102501.56;;;16.77;51.61
71964;BME280;59834;52.124;5.422;2023-05-24T12:39:44;102500.50;;;16.80;51.24
71964;BME280;59834;52.124;5.422;2023-05-24T12:42:11;102496.75;;;16.84;51.54
71964;BME280;59834;52.124;5.422;2023-05-24T12:44:54;102498.25;;;17.15;50.88
71964;BME280;59834;52.124;5.422;2023-05-24T12:47:26;102508.06;;;17.27;49.64
71964;BME280;59834;52.124;5.422;2023-05-24T12:49:56;102503.03;;;17.23;50.49
71964;BME280;59834;52.124;5.422;2023-05-24T12:52:38;102498.31;;;17.01;50.66
71964;BME280;59834;52.124;5.422;2023-05-24T12:55:05;102496.50;;;17.28;50.66
71964;BME280;59834;52.124;5.422;2023-05-24T12:57:33;102494.47;;;17.59;49.60
71964;BME280;59834;52.124;5.422;2023-05-24T13:00:07;102493.22;;;17.64;49.33
71964;BME280;59834;52.124;5.422;2023-05-24T13:02:34;102499.13;;;17.55;49.63
71964;BME280;59834;52.124;5.422;2023-05-24T13:05:06;102499.09;;;17.42;50.12
71964;BME280;59834;52.124;5.422;2023-05-24T13:07:33;102502.09;;;17.51;50.24
71964;BME280;59834;52.124;5.422;2023-05-24T13:10:32;102507.00;;;17.70;50.67
71964;BME280;59834;52.124;5.422;2023-05-24T13:13:50;102502.59;;;17.83;48.63
71964;BME280;59834;52.124;5.422;2023-05-24T13:16:22;102503.47;;;18.09;48.60
71964;BME280;59834;52.124;5.422;2023-05-24T13:18:54;102501.13;;;17.79;49.27
71964;BME280;59834;52.124;5.422;2023-05-24T13:21:21;102501.44;;;17.47;50.53
71964;BME280;59834;52.124;5.422;2023-05-24T13:24:18;102499.09;;;17.42;50.11
71964;BME280;59834;52.124;5.422;2023-05-24T13:26:55;102510.53;;;17.16;51.29